Time;durP1;ratioP1;P1;durP2;ratioP2;P2;SDS_P1;SDS_P2;PMS_P1;PMS_P2;Temp;Humidity;BMP_temperature;BMP_pressure;BME280_temperature;BME280_humidity;BME280_pressure;Samples;Min_cycle;Max_cycle;Signal;HPM_P1;HPM_P2
2022/11/25 00:00:33;;;;;;;5.75;1.33;;;;;;;;;;4974284;28;20053;-66
2022/11/25 00:03:00;;;;;;;4.93;1.25;;;;;;;;;;4959645;28;20061;-66
2022/11/25 00:05:28;;;;;;;5.18;1.35;;;;;;;;;;4996882;28;20061;-67
2022/11/25 00:07:55;;;;;;;9.10;1.55;;;;;;;;;;4983173;28;20053;-68
2022/11/25 00:10:21;;;;;;;3.53;1.25;;;;;;;;;;4970941;28;20057;-66
2022/11/25 00:12:48;;;;;;;3.08;1.02;;;;;;;;;;4949537;28;20073;-68
2022/11/25 00:15:15;;;;;;;3.97;1.38;;;;;;;;;;4995289;28;20050;-65
2022/11/25 00:17:41;;;;;;;5.18;1.48;;;;;;;;;;4957795;28;20065;-66
2022/11/25 00:20:12;;;;;;;7.15;1.40;;;;;;;;;;4958053;28;20050;-67
2022/11/25 00:22:39;;;;;;;3.13;0.98;;;;;;;;;;4961309;28;20050;-65
2022/11/25 00:25:06;;;;;;;4.37;1.30;;;;;;;;;;4956828;28;20058;-65
2022/11/25 00:27:33;;;;;;;4.45;1.40;;;;;;;;;;4933037;28;20065;-68
2022/11/25 00:29:59;;;;;;;2.72;1.13;;;;;;;;;;4977792;28;20245;-66
2022/11/25 00:32:26;;;;;;;8.07;1.67;;;;;;;;;;4938917;28;20132;-67
2022/11/25 00:35:01;;;;;;;4.05;1.30;;;;;;;;;;4962868;28;20057;-67
2022/11/25 00:37:28;;;;;;;6.45;1.23;;;;;;;;;;4978809;28;20064;-67
2022/11/25 00:39:56;;;;;;;4.55;1.30;;;;;;;;;;4968506;28;20148;-66
2022/11/25 00:45:07;;;;;;;3.47;1.20;;;;;;;;;;4991396;28;20108;-68
2022/11/25 00:47:34;;;;;;;3.50;1.00;;;;;;;;;;4980941;28;20113;-66
2022/11/25 00:50:00;;;;;;;5.97;1.33;;;;;;;;;;4978509;28;20054;-67
2022/11/25 00:52:27;;;;;;;4.75;1.42;;;;;;;;;;4951438;28;20049;-67
2022/11/25 00:54:54;;;;;;;3.95;1.20;;;;;;;;;;4979073;28;20060;-67
2022/11/25 00:57:23;;;;;;;5.05;1.20;;;;;;;;;;4949058;28;20046;-68
2022/11/25 00:59:49;;;;;;;8.32;1.50;;;;;;;;;;4956020;28;20050;-68
2022/11/25 01:02:17;;;;;;;9.55;1.20;;;;;;;;;;4955595;28;20056;-68
2022/11/25 01:04:43;;;;;;;9.20;1.02;;;;;;;;;;4962334;28;20120;-68
2022/11/25 01:07:10;;;;;;;8.88;1.63;;;;;;;;;;4965948;28;20058;-66
2022/11/25 01:09:36;;;;;;;8.68;1.20;;;;;;;;;;4969557;28;20125;-66
2022/11/25 01:12:03;;;;;;;6.05;1.27;;;;;;;;;;4964045;28;20116;-69
2022/11/25 01:14:32;;;;;;;6.55;1.33;;;;;;;;;;4973167;28;20161;-66
2022/11/25 01:16:58;;;;;;;10.82;1.48;;;;;;;;;;4965613;28;20058;-65
2022/11/25 01:19:25;;;;;;;5.55;1.27;;;;;;;;;;4930304;28;20054;-67
2022/11/25 01:21:52;;;;;;;4.60;1.30;;;;;;;;;;4952667;28;20057;-68
2022/11/25 01:24:18;;;;;;;5.68;1.25;;;;;;;;;;4953693;28;20055;-69
2022/11/25 01:26:45;;;;;;;4.95;1.38;;;;;;;;;;4912096;28;20057;-68
2022/11/25 01:29:13;;;;;;;7.22;1.30;;;;;;;;;;4945508;28;20050;-66
2022/11/25 01:31:41;;;;;;;6.25;1.35;;;;;;;;;;4933748;28;20075;-65
2022/11/25 01:34:11;;;;;;;5.28;1.00;;;;;;;;;;4923550;28;20144;-66
2022/11/25 01:36:38;;;;;;;4.07;1.25;;;;;;;;;;4957780;28;20058;-65
2022/11/25 01:39:05;;;;;;;6.78;1.40;;;;;;;;;;4973607;28;20050;-66
2022/11/25 01:41:32;;;;;;;7.65;1.52;;;;;;;;;;4987018;28;20062;-67
2022/11/25 01:44:10;;;;;;;5.72;1.40;;;;;;;;;;4976011;28;20047;-63
2022/11/25 01:46:42;;;;;;;5.67;1.20;;;;;;;;;;4991822;28;20058;-66
2022/11/25 01:49:12;;;;;;;4.18;1.05;;;;;;;;;;4962522;28;20316;-64
2022/11/25 01:51:43;;;;;;;7.95;2.00;;;;;;;;;;4948616;28;20068;-68
2022/11/25 01:54:13;;;;;;;6.82;1.27;;;;;;;;;;4949237;28;20086;-68
2022/11/25 01:56:44;;;;;;;11.45;1.20;;;;;;;;;;4947527;28;20111;-64
2022/11/25 01:59:11;;;;;;;7.95;1.35;;;;;;;;;;4978318;28;20086;-66
2022/11/25 02:01:38;;;;;;;7.20;1.40;;;;;;;;;;4949395;28;20050;-68
2022/11/25 02:04:07;;;;;;;7.85;1.02;;;;;;;;;;4976270;28;20060;-67
2022/11/25 02:06:36;;;;;;;9.30;1.25;;;;;;;;;;4973251;28;20053;-66
2022/11/25 02:09:04;;;;;;;7.72;0.90;;;;;;;;;;4985820;28;20054;-64
2022/11/25 02:11:32;;;;;;;4.53;1.45;;;;;;;;;;4948407;28;20061;-66
2022/11/25 02:13:59;;;;;;;5.55;1.25;;;;;;;;;;4973948;28;20043;-67
2022/11/25 02:16:25;;;;;;;5.50;1.33;;;;;;;;;;4978589;28;20050;-65
2022/11/25 02:18:52;;;;;;;7.18;1.20;;;;;;;;;;4977055;28;20117;-67
2022/11/25 02:21:23;;;;;;;8.27;1.48;;;;;;;;;;4945142;28;21850;-67
2022/11/25 02:23:53;;;;;;;6.28;1.20;;;;;;;;;;4962269;28;20046;-66
2022/11/25 02:26:21;;;;;;;2.63;0.95;;;;;;;;;;4986263;28;20081;-67
2022/11/25 02:28:48;;;;;;;4.47;1.02;;;;;;;;;;4961432;28;20061;-68
2022/11/25 02:31:18;;;;;;;4.88;1.10;;;;;;;;;;4964491;28;20069;-69
2022/11/25 02:33:45;;;;;;;8.93;1.45;;;;;;;;;;4993894;28;20054;-64
2022/11/25 02:36:13;;;;;;;4.85;1.20;;;;;;;;;;4958601;28;20046;-66
2022/11/25 02:38:42;;;;;;;4.10;1.10;;;;;;;;;;4973242;28;20064;-67
2022/11/25 02:41:12;;;;;;;6.25;1.25;;;;;;;;;;4944977;28;20138;-66
2022/11/25 02:43:40;;;;;;;5.00;1.17;;;;;;;;;;4946764;28;20058;-67
2022/11/25 02:46:09;;;;;;;6.90;1.08;;;;;;;;;;4958032;28;20050;-69
2022/11/25 02:48:35;;;;;;;;;;;;;;;;;;4942497;28;21149;-66
2022/11/25 02:51:02;;;;;;;3.70;0.95;;;;;;;;;;4951200;28;19993;-66
2022/11/25 02:53:29;;;;;;;6.43;1.40;;;;;;;;;;4944024;28;20042;-67
2022/11/25 02:55:56;;;;;;;6.25;1.30;;;;;;;;;;4950797;28;20062;-68
2022/11/25 02:58:22;;;;;;;7.00;1.25;;;;;;;;;;4951901;28;20054;-69
2022/11/25 03:00:50;;;;;;;3.15;1.13;;;;;;;;;;4935220;28;20050;-65
2022/11/25 03:03:17;;;;;;;2.67;0.98;;;;;;;;;;4929240;28;20054;-67
2022/11/25 03:05:44;;;;;;;2.10;0.93;;;;;;;;;;4969750;28;20269;-65
2022/11/25 03:08:10;;;;;;;5.55;1.25;;;;;;;;;;4975498;28;20053;-65
2022/11/25 03:10:37;;;;;;;5.75;1.33;;;;;;;;;;4956015;28;20068;-66
2022/11/25 03:13:07;;;;;;;5.43;1.27;;;;;;;;;;4977394;28;20069;-68
2022/11/25 03:15:33;;;;;;;2.72;0.90;;;;;;;;;;4977317;28;20057;-65
2022/11/25 03:18:01;;;;;;;6.72;1.50;;;;;;;;;;4980791;28;20066;-67
2022/11/25 03:20:28;;;;;;;3.75;1.00;;;;;;;;;;4972458;28;20046;-66
2022/11/25 03:22:55;;;;;;;5.07;1.23;;;;;;;;;;4958521;28;20050;-68
2022/11/25 03:25:21;;;;;;;3.63;1.02;;;;;;;;;;4972637;28;20054;-68
2022/11/25 03:27:48;;;;;;;5.82;1.23;;;;;;;;;;4958486;28;20077;-65
2022/11/25 03:30:16;;;;;;;3.92;1.08;;;;;;;;;;4946935;28;20069;-68
2022/11/25 03:32:43;;;;;;;5.10;1.13;;;;;;;;;;4955930;28;20054;-68
2022/11/25 03:35:11;;;;;;;1.88;0.80;;;;;;;;;;4945307;28;20078;-68
2022/11/25 03:37:38;;;;;;;5.63;1.10;;;;;;;;;;4951851;28;20135;-65
2022/11/25 03:40:06;;;;;;;3.97;1.02;;;;;;;;;;4983287;28;20069;-68
2022/11/25 03:42:33;;;;;;;2.72;0.90;;;;;;;;;;4950360;28;20082;-68
2022/11/25 03:44:59;;;;;;;3.40;0.93;;;;;;;;;;4927835;28;20065;-70
2022/11/25 03:47:26;;;;;;;3.65;1.00;;;;;;;;;;4939618;28;20062;-68
2022/11/25 03:49:52;;;;;;;5.05;1.10;;;;;;;;;;4979918;28;20082;-68
2022/11/25 03:52:20;;;;;;;4.82;1.10;;;;;;;;;;4944436;28;20100;-68
2022/11/25 03:54:47;;;;;;;5.67;1.03;;;;;;;;;;4963804;28;20096;-68
2022/11/25 03:57:13;;;;;;;3.38;1.00;;;;;;;;;;4952893;28;20042;-68
2022/11/25 03:59:40;;;;;;;4.82;0.93;;;;;;;;;;4979416;28;20058;-68
2022/11/25 04:02:06;;;;;;;1.95;0.95;;;;;;;;;;4953157;28;20081;-64
2022/11/25 04:04:33;;;;;;;1.70;0.73;;;;;;;;;;4958586;28;20110;-65
2022/11/25 04:06:59;;;;;;;4.90;1.02;;;;;;;;;;4961720;28;20149;-64
2022/11/25 04:09:27;;;;;;;4.18;1.52;;;;;;;;;;4941790;28;20050;-67
2022/11/25 04:14:38;;;;;;;2.00;0.88;;;;;;;;;;4981874;28;20045;-66
2022/11/25 04:17:04;;;;;;;6.03;1.20;;;;;;;;;;4964040;28;20105;-68
2022/11/25 04:19:31;;;;;;;2.22;0.95;;;;;;;;;;4958331;28;20108;-68
2022/11/25 04:22:00;;;;;;;2.92;0.90;;;;;;;;;;4991276;28;20072;-65
2022/11/25 04:24:27;;;;;;;4.32;1.30;;;;;;;;;;4976073;28;20058;-64
2022/11/25 04:26:54;;;;;;;3.57;0.97;;;;;;;;;;4971263;28;20058;-69
2022/11/25 04:29:20;;;;;;;2.95;0.95;;;;;;;;;;4968914;28;20046;-69
2022/11/25 04:31:47;;;;;;;2.50;0.77;;;;;;;;;;4971839;28;20062;-66
2022/11/25 04:34:14;;;;;;;1.40;0.60;;;;;;;;;;4977174;28;20117;-66
2022/11/25 04:36:40;;;;;;;3.45;0.82;;;;;;;;;;4982102;28;20119;-66
2022/11/25 04:39:07;;;;;;;2.00;0.70;;;;;;;;;;4959400;28;20381;-68
2022/11/25 04:41:35;;;;;;;2.45;0.85;;;;;;;;;;4976516;28;20064;-66
2022/11/25 04:44:02;;;;;;;2.70;0.67;;;;;;;;;;4977834;28;20050;-65
2022/11/25 04:46:34;;;;;;;4.63;1.13;;;;;;;;;;4981869;28;20340;-69
2022/11/25 04:49:00;;;;;;;4.38;0.90;;;;;;;;;;4977507;28;20061;-66
2022/11/25 04:51:27;;;;;;;5.07;1.00;;;;;;;;;;4967940;28;20066;-68
2022/11/25 04:53:53;;;;;;;3.95;1.13;;;;;;;;;;4964184;28;20108;-70
2022/11/25 04:56:20;;;;;;;4.50;0.90;;;;;;;;;;4979237;28;20069;-67
2022/11/25 05:01:32;;;;;;;3.63;0.90;;;;;;;;;;4971709;28;20062;-68
2022/11/25 05:03:58;;;;;;;3.05;0.98;;;;;;;;;;4963203;28;20054;-67
2022/11/25 05:06:25;;;;;;;3.92;0.75;;;;;;;;;;4978194;28;20104;-69
2022/11/25 05:08:51;;;;;;;3.38;0.82;;;;;;;;;;4980883;28;20054;-64
2022/11/25 05:11:18;;;;;;;5.53;0.90;;;;;;;;;;4959409;28;20108;-68
2022/11/25 05:13:44;;;;;;;2.65;0.75;;;;;;;;;;5016674;28;20063;-69
2022/11/25 05:16:12;;;;;;;2.58;0.95;;;;;;;;;;4976819;28;20058;-68
2022/11/25 05:18:39;;;;;;;1.85;0.70;;;;;;;;;;4980981;28;20054;-65
2022/11/25 05:21:06;;;;;;;3.15;1.00;;;;;;;;;;4975206;28;20064;-70
2022/11/25 05:23:33;;;;;;;1.73;0.73;;;;;;;;;;4977244;28;20061;-65
2022/11/25 05:26:00;;;;;;;3.83;1.00;;;;;;;;;;4975754;28;20050;-65
2022/11/25 05:28:26;;;;;;;2.53;0.73;;;;;;;;;;4969955;28;20085;-68
2022/11/25 05:30:53;;;;;;;3.53;0.73;;;;;;;;;;4952750;28;20054;-68
2022/11/25 05:33:21;;;;;;;3.95;0.98;;;;;;;;;;4956143;28;20150;-69
2022/11/25 05:35:53;;;;;;;3.57;0.70;;;;;;;;;;4963367;28;20054;-69
2022/11/25 05:38:20;;;;;;;2.35;0.65;;;;;;;;;;4949566;28;20065;-70
2022/11/25 05:40:47;;;;;;;1.40;0.63;;;;;;;;;;4965392;28;20058;-69
2022/11/25 05:43:13;;;;;;;1.80;0.80;;;;;;;;;;4971523;28;20062;-67
2022/11/25 05:45:40;;;;;;;3.00;0.85;;;;;;;;;;4984240;28;20056;-68
2022/11/25 05:48:07;;;;;;;1.38;0.65;;;;;;;;;;4980740;28;20054;-68
2022/11/25 05:50:35;;;;;;;2.25;0.70;;;;;;;;;;4998998;28;20081;-69
2022/11/25 05:53:02;;;;;;;5.97;0.70;;;;;;;;;;4979252;28;20058;-65
2022/11/25 05:55:28;;;;;;;3.25;0.90;;;;;;;;;;4977202;28;20053;-66
2022/11/25 05:57:55;;;;;;;4.35;0.70;;;;;;;;;;4964312;28;20118;-66
2022/11/25 06:00:22;;;;;;;1.92;0.90;;;;;;;;;;4982771;28;20101;-66
2022/11/25 06:02:49;;;;;;;1.80;0.60;;;;;;;;;;4972287;28;20080;-67
2022/11/25 06:05:16;;;;;;;5.60;1.00;;;;;;;;;;4966570;28;20060;-68
2022/11/25 06:07:44;;;;;;;2.70;0.98;;;;;;;;;;4974074;28;20065;-67
2022/11/25 06:10:11;;;;;;;1.85;0.68;;;;;;;;;;4962842;28;20050;-68
2022/11/25 06:12:38;;;;;;;3.38;0.88;;;;;;;;;;4962131;28;20065;-66
2022/11/25 06:15:05;;;;;;;3.03;0.70;;;;;;;;;;4975469;28;20058;-70
2022/11/25 06:17:31;;;;;;;2.65;0.82;;;;;;;;;;4984885;28;20061;-65
2022/11/25 06:19:58;;;;;;;1.98;0.80;;;;;;;;;;4968226;28;20058;-66
2022/11/25 06:22:24;;;;;;;5.35;0.85;;;;;;;;;;4985345;28;20065;-68
2022/11/25 06:24:52;;;;;;;2.13;0.68;;;;;;;;;;4974678;28;20114;-66
2022/11/25 06:27:19;;;;;;;2.20;1.00;;;;;;;;;;4954315;28;20104;-66
2022/11/25 06:29:45;;;;;;;1.40;0.68;;;;;;;;;;4990782;28;20364;-67
2022/11/25 06:32:12;;;;;;;1.10;0.60;;;;;;;;;;4962428;28;20057;-67
2022/11/25 06:34:41;;;;;;;1.98;0.80;;;;;;;;;;4955594;28;20081;-68
2022/11/25 06:37:08;;;;;;;1.95;0.70;;;;;;;;;;4975134;28;20138;-70
2022/11/25 06:39:34;;;;;;;3.45;0.90;;;;;;;;;;4970549;28;20117;-66
2022/11/25 06:42:02;;;;;;;1.65;0.70;;;;;;;;;;4978914;28;20057;-69
2022/11/25 06:44:29;;;;;;;1.33;0.60;;;;;;;;;;4980090;28;20085;-68
2022/11/25 06:46:55;;;;;;;3.42;0.85;;;;;;;;;;4961633;28;20054;-67
2022/11/25 06:49:22;;;;;;;1.85;0.93;;;;;;;;;;4950639;28;20053;-67
2022/11/25 06:51:49;;;;;;;2.53;0.80;;;;;;;;;;4995669;28;20052;-66
2022/11/25 06:54:16;;;;;;;1.27;0.70;;;;;;;;;;4981976;28;20054;-65
2022/11/25 06:56:42;;;;;;;1.60;0.70;;;;;;;;;;4969161;28;20057;-65
2022/11/25 06:59:11;;;;;;;3.13;0.63;;;;;;;;;;4970478;28;20058;-67
2022/11/25 07:01:38;;;;;;;1.33;0.52;;;;;;;;;;4957575;28;20058;-68
2022/11/25 07:04:05;;;;;;;2.42;0.70;;;;;;;;;;4969842;28;20136;-68
2022/11/25 07:06:32;;;;;;;2.92;1.02;;;;;;;;;;4969012;28;20076;-67
2022/11/25 07:08:59;;;;;;;4.75;0.90;;;;;;;;;;4978559;28;20058;-67
2022/11/25 07:11:26;;;;;;;2.30;1.05;;;;;;;;;;4951916;28;20068;-66
2022/11/25 07:13:53;;;;;;;4.03;0.90;;;;;;;;;;4959393;28;20066;-65
2022/11/25 07:16:21;;;;;;;3.40;1.00;;;;;;;;;;4961809;28;20137;-66
2022/11/25 07:18:48;;;;;;;3.23;0.73;;;;;;;;;;4975505;28;20070;-65
2022/11/25 07:21:16;;;;;;;1.33;0.80;;;;;;;;;;4940227;28;20108;-66
2022/11/25 07:23:47;;;;;;;1.92;0.88;;;;;;;;;;4938469;28;20064;-68
2022/11/25 07:26:17;;;;;;;2.58;1.13;;;;;;;;;;4940752;28;20125;-68
2022/11/25 07:28:44;;;;;;;2.13;0.90;;;;;;;;;;4930553;28;20066;-67
2022/11/25 07:31:13;;;;;;;3.03;1.02;;;;;;;;;;4934197;28;20054;-66
2022/11/25 07:33:41;;;;;;;2.60;0.75;;;;;;;;;;4957053;28;20066;-66
2022/11/25 07:36:08;;;;;;;2.97;0.93;;;;;;;;;;4937265;28;20050;-69
2022/11/25 07:38:35;;;;;;;2.60;0.80;;;;;;;;;;4936718;28;20305;-67
2022/11/25 07:41:06;;;;;;;3.33;1.00;;;;;;;;;;4919217;28;20060;-64
2022/11/25 07:43:33;;;;;;;2.28;1.02;;;;;;;;;;4948872;28;21033;-63
2022/11/25 07:46:08;;;;;;;1.38;0.68;;;;;;;;;;4946789;28;20054;-70
2022/11/25 07:48:34;;;;;;;2.80;0.80;;;;;;;;;;4958038;28;20054;-65
2022/11/25 07:51:13;;;;;;;1.83;0.75;;;;;;;;;;4954458;28;20055;-66
2022/11/25 07:53:42;;;;;;;1.38;0.75;;;;;;;;;;4940018;28;20118;-63
2022/11/25 07:56:08;;;;;;;2.63;0.70;;;;;;;;;;4935351;28;20054;-68
2022/11/25 07:58:39;;;;;;;3.47;0.85;;;;;;;;;;4973865;28;20068;-67
2022/11/25 08:01:06;;;;;;;1.27;0.70;;;;;;;;;;4960221;28;20136;-69
2022/11/25 08:03:33;;;;;;;2.33;0.80;;;;;;;;;;4932195;28;20062;-68
2022/11/25 08:06:00;;;;;;;2.45;1.20;;;;;;;;;;4969801;28;20137;-64
2022/11/25 08:08:28;;;;;;;1.17;0.70;;;;;;;;;;4935775;28;20062;-67
2022/11/25 08:10:54;;;;;;;3.50;0.70;;;;;;;;;;4934496;28;20125;-67
2022/11/25 08:13:21;;;;;;;2.95;0.80;;;;;;;;;;4926992;28;20062;-65
2022/11/25 08:15:51;;;;;;;2.33;0.80;;;;;;;;;;4918829;28;20058;-69
2022/11/25 08:18:18;;;;;;;2.05;0.57;;;;;;;;;;4928011;28;20125;-68
2022/11/25 08:20:45;;;;;;;2.22;0.80;;;;;;;;;;4933704;28;20058;-69
2022/11/25 08:23:11;;;;;;;1.92;0.70;;;;;;;;;;4911922;28;20061;-66
2022/11/25 08:25:41;;;;;;;1.25;0.60;;;;;;;;;;4939611;28;20110;-65
2022/11/25 08:28:10;;;;;;;2.78;1.00;;;;;;;;;;4955479;28;20058;-64
2022/11/25 08:30:36;;;;;;;1.10;0.70;;;;;;;;;;4943432;28;20057;-66
2022/11/25 08:33:06;;;;;;;2.15;0.80;;;;;;;;;;4937508;28;20058;-68
2022/11/25 08:35:36;;;;;;;1.83;0.80;;;;;;;;;;4929634;28;20062;-67
2022/11/25 08:38:03;;;;;;;2.22;0.77;;;;;;;;;;4913617;28;20092;-66
2022/11/25 08:40:33;;;;;;;2.90;0.77;;;;;;;;;;4963916;28;20108;-69
2022/11/25 08:43:01;;;;;;;3.00;1.02;;;;;;;;;;4947439;28;20091;-66
2022/11/25 08:45:31;;;;;;;2.50;0.85;;;;;;;;;;4917784;28;20062;-65
2022/11/25 08:47:58;;;;;;;3.10;1.00;;;;;;;;;;4904309;28;20065;-66
2022/11/25 08:50:27;;;;;;;2.47;0.80;;;;;;;;;;4905077;28;20067;-67
2022/11/25 08:52:54;;;;;;;1.67;0.70;;;;;;;;;;4932756;28;20070;-69
2022/11/25 08:55:21;;;;;;;2.40;1.00;;;;;;;;;;4908756;28;20162;-70
2022/11/25 08:57:48;;;;;;;1.40;0.57;;;;;;;;;;4923068;28;20145;-70
2022/11/25 09:00:17;;;;;;;2.75;0.77;;;;;;;;;;4942464;28;20068;-67
2022/11/25 09:02:43;;;;;;;2.03;0.90;;;;;;;;;;4939416;28;20050;-66
2022/11/25 09:05:19;;;;;;;1.75;0.77;;;;;;;;;;4939671;28;20050;-69
2022/11/25 09:07:45;;;;;;;2.35;0.80;;;;;;;;;;4929072;28;20058;-67
2022/11/25 09:10:15;;;;;;;2.05;0.80;;;;;;;;;;4938363;28;20054;-68
2022/11/25 09:12:41;;;;;;;4.65;0.77;;;;;;;;;;4933341;28;20054;-70
2022/11/25 09:15:12;;;;;;;1.20;0.70;;;;;;;;;;4900592;28;20046;-70
2022/11/25 09:17:40;;;;;;;1.42;0.70;;;;;;;;;;4941931;28;20066;-67
2022/11/25 09:20:09;;;;;;;2.58;0.80;;;;;;;;;;4913265;28;20054;-70
2022/11/25 09:22:36;;;;;;;1.35;0.80;;;;;;;;;;4942952;28;20046;-66
2022/11/25 09:25:06;;;;;;;3.08;0.60;;;;;;;;;;4942256;28;20095;-69
2022/11/25 09:27:32;;;;;;;2.30;0.95;;;;;;;;;;4937697;28;20144;-66
2022/11/25 09:29:59;;;;;;;1.58;0.80;;;;;;;;;;4948973;28;20058;-67
2022/11/25 09:32:25;;;;;;;5.38;1.15;;;;;;;;;;4925075;28;20086;-66
2022/11/25 09:34:55;;;;;;;1.77;0.80;;;;;;;;;;4934415;28;20077;-64
2022/11/25 09:37:22;;;;;;;2.08;0.90;;;;;;;;;;4952465;28;20102;-69
2022/11/25 09:39:51;;;;;;;2.95;1.10;;;;;;;;;;4960616;28;20064;-67
2022/11/25 09:48:03;;;;;;;1.65;0.75;;;;;;;;;;4964486;28;20052;-69
2022/11/25 09:50:40;;;;;;;3.67;1.08;;;;;;;;;;4970539;28;20077;-67
2022/11/25 09:53:21;;;;;;;1.63;0.80;;;;;;;;;;4892404;28;20052;-68
2022/11/25 09:55:49;;;;;;;3.33;1.02;;;;;;;;;;4928841;28;20052;-68
2022/11/25 09:58:27;;;;;;;2.45;0.85;;;;;;;;;;4963356;28;20128;-68
2022/11/25 10:00:54;;;;;;;5.07;1.05;;;;;;;;;;4959492;28;20092;-65
2022/11/25 10:03:28;;;;;;;5.75;1.70;;;;;;;;;;4946277;28;20077;-65
2022/11/25 10:06:04;;;;;;;5.05;1.33;;;;;;;;;;4943597;28;20069;-64
2022/11/25 10:08:39;;;;;;;2.17;0.85;;;;;;;;;;4894881;28;20065;-64
2022/11/25 10:11:13;;;;;;;2.80;1.20;;;;;;;;;;4937083;28;20062;-65
2022/11/25 10:13:43;;;;;;;2.17;0.93;;;;;;;;;;4925241;28;20094;-64
2022/11/25 10:16:16;;;;;;;6.15;0.85;;;;;;;;;;4920557;28;20098;-66
2022/11/25 10:18:48;;;;;;;4.88;1.20;;;;;;;;;;4967987;28;20058;-64
2022/11/25 10:21:16;;;;;;;3.22;1.00;;;;;;;;;;4951798;28;20046;-66
2022/11/25 10:23:42;;;;;;;5.60;1.25;;;;;;;;;;4956559;28;20070;-65
2022/11/25 10:26:12;;;;;;;4.15;0.98;;;;;;;;;;4946502;28;20057;-69
2022/11/25 10:28:41;;;;;;;6.55;1.65;;;;;;;;;;4949487;28;20065;-67
2022/11/25 10:31:07;;;;;;;;;;;;;;;;;;4933939;28;20062;-65
2022/11/25 10:33:38;;;;;;;4.85;1.00;;;;;;;;;;4932494;28;19933;-66
2022/11/25 10:36:08;;;;;;;2.88;1.17;;;;;;;;;;4943876;28;20054;-68
2022/11/25 10:38:40;;;;;;;7.68;1.30;;;;;;;;;;4956230;28;20077;-63
2022/11/25 10:41:07;;;;;;;6.18;1.10;;;;;;;;;;4941597;28;20113;-64
2022/11/25 10:43:34;;;;;;;3.33;1.40;;;;;;;;;;4945627;28;20142;-65
2022/11/25 10:46:07;;;;;;;3.50;1.05;;;;;;;;;;4952214;28;20042;-62
2022/11/25 10:48:44;;;;;;;2.78;1.08;;;;;;;;;;4955421;28;20057;-65
2022/11/25 10:51:19;;;;;;;4.22;1.20;;;;;;;;;;4951841;28;20061;-65
2022/11/25 10:54:00;;;;;;;6.72;1.27;;;;;;;;;;4943849;28;20138;-65
2022/11/25 10:56:28;;;;;;;2.80;1.20;;;;;;;;;;4925739;28;20050;-63
2022/11/25 10:58:58;;;;;;;6.53;1.40;;;;;;;;;;4934957;28;20058;-65
2022/11/25 11:01:25;;;;;;;2.10;1.15;;;;;;;;;;4912761;28;20058;-66
2022/11/25 11:03:56;;;;;;;3.67;1.10;;;;;;;;;;4933693;28;20054;-64
2022/11/25 11:06:32;;;;;;;5.22;1.30;;;;;;;;;;4965516;28;20054;-65
2022/11/25 11:08:59;;;;;;;4.35;1.30;;;;;;;;;;4920049;28;20055;-68
2022/11/25 11:11:46;;;;;;;5.35;1.38;;;;;;;;;;4900632;28;20063;-66
2022/11/25 11:14:14;;;;;;;7.78;1.55;;;;;;;;;;4948465;28;20110;-65
2022/11/25 11:16:52;;;;;;;3.60;1.35;;;;;;;;;;4939465;28;20051;-66
2022/11/25 11:19:22;;;;;;;3.53;1.23;;;;;;;;;;4898658;28;20058;-65
2022/11/25 11:21:49;;;;;;;3.63;1.52;;;;;;;;;;4949958;28;20054;-64
2022/11/25 11:24:25;;;;;;;5.15;1.38;;;;;;;;;;4955921;28;20054;-66
2022/11/25 11:27:05;;;;;;;4.28;1.25;;;;;;;;;;4936887;28;20070;-67
2022/11/25 11:29:34;;;;;;;5.30;1.63;;;;;;;;;;4912093;28;20094;-66
2022/11/25 11:32:02;;;;;;;6.75;1.50;;;;;;;;;;4927450;28;20141;-69
2022/11/25 11:34:37;;;;;;;3.78;1.40;;;;;;;;;;4950806;28;20046;-64
2022/11/25 11:37:16;;;;;;;4.72;1.30;;;;;;;;;;4970299;28;20064;-66
2022/11/25 11:39:58;;;;;;;4.60;1.55;;;;;;;;;;4942643;28;20055;-65
2022/11/25 11:42:34;;;;;;;3.70;1.30;;;;;;;;;;4946643;28;20058;-65
2022/11/25 11:45:12;;;;;;;5.45;1.58;;;;;;;;;;4931582;28;20062;-67
2022/11/25 11:47:44;;;;;;;8.27;1.55;;;;;;;;;;4914731;28;20086;-65
2022/11/25 11:50:26;;;;;;;4.85;1.92;;;;;;;;;;4946337;28;20193;-64
2022/11/25 11:52:56;;;;;;;4.30;1.27;;;;;;;;;;4932224;28;20050;-67
2022/11/25 11:55:31;;;;;;;3.85;1.25;;;;;;;;;;4927159;28;20061;-65
2022/11/25 11:58:08;;;;;;;8.20;1.58;;;;;;;;;;4925531;28;20129;-67
2022/11/25 12:00:42;;;;;;;5.60;1.55;;;;;;;;;;4932155;28;20160;-64
2022/11/25 12:03:11;;;;;;;5.18;1.40;;;;;;;;;;4948195;28;20086;-67
2022/11/25 12:05:38;;;;;;;6.30;1.73;;;;;;;;;;4887078;28;20063;-64
2022/11/25 12:08:09;;;;;;;6.05;1.67;;;;;;;;;;4936389;28;20054;-66
2022/11/25 12:10:38;;;;;;;11.10;1.80;;;;;;;;;;4942347;28;20086;-67
2022/11/25 12:13:12;;;;;;;7.27;1.57;;;;;;;;;;4921617;28;20050;-67
2022/11/25 12:15:43;;;;;;;9.18;1.50;;;;;;;;;;4920297;28;20087;-66
2022/11/25 12:18:15;;;;;;;6.22;1.60;;;;;;;;;;4918393;28;20059;-65
2022/11/25 12:20:45;;;;;;;7.20;1.40;;;;;;;;;;4930724;28;20079;-64
2022/11/25 12:23:16;;;;;;;3.78;1.58;;;;;;;;;;4946011;28;20197;-69
2022/11/25 12:25:42;;;;;;;6.10;1.90;;;;;;;;;;4921462;29;20138;-68
2022/11/25 12:28:13;;;;;;;4.57;1.35;;;;;;;;;;4889196;28;20316;-67
2022/11/25 12:30:55;;;;;;;6.38;1.58;;;;;;;;;;4907280;28;20065;-68
2022/11/25 12:33:24;;;;;;;6.20;1.40;;;;;;;;;;4919193;28;20126;-64
2022/11/25 12:35:52;;;;;;;4.40;1.35;;;;;;;;;;4898872;29;20154;-66
2022/11/25 12:38:25;;;;;;;6.13;1.40;;;;;;;;;;4940629;28;20063;-67
2022/11/25 12:40:55;;;;;;;5.40;1.55;;;;;;;;;;4928478;28;20063;-65
2022/11/25 12:43:28;;;;;;;5.80;1.48;;;;;;;;;;4920605;28;20051;-65
2022/11/25 12:46:05;;;;;;;6.43;1.42;;;;;;;;;;4895462;29;20068;-66
2022/11/25 12:48:46;;;;;;;8.60;1.60;;;;;;;;;;4903616;28;20042;-64
2022/11/25 12:51:21;;;;;;;7.10;1.27;;;;;;;;;;4922684;28;20181;-66
2022/11/25 12:53:52;;;;;;;6.75;1.35;;;;;;;;;;4938293;28;20059;-65
2022/11/25 12:56:22;;;;;;;5.20;1.42;;;;;;;;;;4922973;28;20051;-67
2022/11/25 12:59:00;;;;;;;6.03;1.63;;;;;;;;;;4933857;28;20050;-65
2022/11/25 13:01:37;;;;;;;7.97;1.35;;;;;;;;;;4959774;28;20065;-67
2022/11/25 13:04:25;;;;;;;7.90;1.20;;;;;;;;;;4954593;28;20141;-63
2022/11/25 13:07:12;;;;;;;4.53;1.35;;;;;;;;;;4966428;28;20068;-66
2022/11/25 13:09:46;;;;;;;5.13;1.27;;;;;;;;;;4945964;28;20086;-66
2022/11/25 13:12:26;;;;;;;6.25;1.20;;;;;;;;;;4990198;28;20105;-65
2022/11/25 13:15:12;;;;;;;8.25;1.30;;;;;;;;;;4957730;28;20109;-66
2022/11/25 13:17:43;;;;;;;7.40;1.35;;;;;;;;;;4969804;28;20184;-62
2022/11/25 13:20:31;;;;;;;2.42;1.08;;;;;;;;;;4968921;28;20068;-69
2022/11/25 13:22:57;;;;;;;;;;;;;;;;;;4997261;28;20344;-64
2022/11/25 13:25:28;;;;;;;9.30;1.40;;;;;;;;;;4928350;28;19925;-63
2022/11/25 13:27:58;;;;;;;5.35;1.27;;;;;;;;;;4949756;28;20057;-67
2022/11/25 13:30:37;;;;;;;4.13;1.23;;;;;;;;;;4944045;28;20050;-64
2022/11/25 13:33:18;;;;;;;7.40;1.17;;;;;;;;;;4969305;28;20084;-65
2022/11/25 13:35:54;;;;;;;7.57;1.38;;;;;;;;;;4986058;28;20131;-69
2022/11/25 13:38:47;;;;;;;7.37;1.10;;;;;;;;;;4926417;28;20134;-66
2022/11/25 13:41:38;;;;;;;5.90;1.10;;;;;;;;;;4947149;28;20049;-68
2022/11/25 13:44:05;;;;;;;7.65;1.27;;;;;;;;;;4902654;28;20058;-69
2022/11/25 13:46:39;;;;;;;6.78;1.30;;;;;;;;;;4940858;28;20054;-69
2022/11/25 13:49:22;;;;;;;5.80;1.40;;;;;;;;;;4950141;28;20121;-67
2022/11/25 13:51:50;;;;;;;2.88;1.15;;;;;;;;;;4965435;28;20049;-71
2022/11/25 13:54:20;;;;;;;5.07;1.23;;;;;;;;;;4986765;28;20109;-70
2022/11/25 13:56:58;;;;;;;6.65;1.13;;;;;;;;;;4969985;28;20071;-68
2022/11/25 13:59:48;;;;;;;5.17;1.27;;;;;;;;;;4953956;28;20133;-63
2022/11/25 14:02:29;;;;;;;5.82;1.08;;;;;;;;;;4960100;28;20061;-62
2022/11/25 14:04:55;;;;;;;;;;;;;;;;;;4951767;28;20074;-66
2022/11/25 14:07:30;;;;;;;4.50;1.23;;;;;;;;;;4974612;28;20126;-61
2022/11/25 14:10:02;;;;;;;8.27;1.20;;;;;;;;;;4948488;28;20144;-67
2022/11/25 14:12:43;;;;;;;6.50;1.40;;;;;;;;;;4987526;28;20049;-67
2022/11/25 14:15:28;;;;;;;4.28;1.40;;;;;;;;;;4946971;28;20076;-66
2022/11/25 14:18:12;;;;;;;5.88;1.48;;;;;;;;;;4966638;28;20053;-63
2022/11/25 14:20:43;;;;;;;4.53;1.40;;;;;;;;;;4996341;28;20125;-68
2022/11/25 14:23:20;;;;;;;3.80;1.10;;;;;;;;;;4927621;28;20054;-67
2022/11/25 14:25:49;;;;;;;6.10;1.08;;;;;;;;;;4954154;28;20117;-64
2022/11/25 14:28:23;;;;;;;5.85;1.30;;;;;;;;;;4987481;28;20058;-65
2022/11/25 14:30:51;;;;;;;9.23;1.35;;;;;;;;;;4995751;28;20067;-69
2022/11/25 14:33:22;;;;;;;6.70;1.50;;;;;;;;;;4960235;28;20054;-64
2022/11/25 14:35:54;;;;;;;6.43;1.15;;;;;;;;;;4949580;28;20051;-68
2022/11/25 14:38:25;;;;;;;6.22;1.15;;;;;;;;;;4944230;28;20076;-67
2022/11/25 14:40:55;;;;;;;6.50;1.25;;;;;;;;;;4923360;28;20063;-70
2022/11/25 14:43:25;;;;;;;4.63;1.27;;;;;;;;;;4926415;28;20054;-70
2022/11/25 14:46:08;;;;;;;6.32;1.23;;;;;;;;;;4951044;28;20057;-67
2022/11/25 14:48:50;;;;;;;4.32;1.40;;;;;;;;;;4969529;28;20062;-66
2022/11/25 14:51:18;;;;;;;3.47;1.08;;;;;;;;;;4951303;28;20050;-65
2022/11/25 14:53:51;;;;;;;5.63;1.15;;;;;;;;;;4957870;28;20065;-66
2022/11/25 14:56:22;;;;;;;5.82;1.50;;;;;;;;;;4971062;28;20120;-68
2022/11/25 14:58:50;;;;;;;8.18;1.58;;;;;;;;;;4928248;28;20054;-67
2022/11/25 15:01:20;;;;;;;4.30;1.20;;;;;;;;;;4941746;28;20056;-67
2022/11/25 15:03:47;;;;;;;7.60;1.20;;;;;;;;;;4994470;28;20085;-67
2022/11/25 15:06:14;;;;;;;3.83;1.20;;;;;;;;;;4950609;28;20058;-65
2022/11/25 15:08:46;;;;;;;4.50;1.23;;;;;;;;;;4987013;28;20073;-67
2022/11/25 15:11:16;;;;;;;3.42;1.08;;;;;;;;;;4959886;28;20209;-68